Time;durP1;ratioP1;P1;durP2;ratioP2;P2;SDS_P1;SDS_P2;PMS_P1;PMS_P2;Temp;Humidity;BMP_temperature;BMP_pressure;BME280_temperature;BME280_humidity;BME280_pressure;Samples;Min_cycle;Max_cycle;Signal;HPM_P1;HPM_P2
2021/12/08 05:29:45;;;;;;;2.45;2.30;;;1.80;99.90;;;;;;6039603;23;20179;31
2021/12/08 05:32:14;;;;;;;2.20;2.00;;;1.80;99.90;;;;;;4936409;29;20307;-68
2021/12/08 05:34:42;;;;;;;2.30;2.20;;;1.90;99.90;;;;;;4938224;29;20330;-69
2021/12/08 05:37:11;;;;;;;2.42;2.33;;;1.90;99.90;;;;;;4938181;29;20201;-69
2021/12/08 05:39:39;;;;;;;2.10;2.00;;;1.90;99.90;;;;;;4937821;29;20305;-69
2021/12/08 05:42:10;;;;;;;2.20;2.10;;;1.90;99.90;;;;;;4937538;29;20209;-69
2021/12/08 05:44:37;;;;;;;1.95;1.85;;;1.90;99.90;;;;;;4938079;29;20280;-69
2021/12/08 05:47:09;;;;;;;2.10;2.00;;;1.90;99.90;;;;;;4938766;29;20291;-68
2021/12/08 05:49:38;;;;;;;2.00;2.00;;;1.90;99.90;;;;;;4938190;29;20592;-69
2021/12/08 05:52:06;;;;;;;1.58;1.48;;;2.00;99.90;;;;;;4937785;29;20292;-68
2021/12/08 05:54:39;;;;;;;1.95;1.90;;;1.90;99.90;;;;;;4937924;29;20291;-70
2021/12/08 05:57:09;;;;;;;1.48;1.48;;;2.00;99.90;;;;;;4937809;29;20274;-69
2021/12/08 05:59:37;;;;;;;1.85;1.83;;;2.00;99.90;;;;;;4938239;29;20308;-70
2021/12/08 06:02:08;;;;;;;1.73;1.73;;;2.10;99.90;;;;;;4937718;29;20299;-69
2021/12/08 06:04:37;;;;;;;2.38;2.28;;;2.10;99.90;;;;;;4937766;29;20200;-71
2021/12/08 06:07:06;;;;;;;2.20;2.10;;;2.10;99.90;;;;;;4937703;29;20201;-71
2021/12/08 06:09:34;;;;;;;1.75;1.75;;;2.10;99.90;;;;;;4937434;29;20315;-71
2021/12/08 06:12:02;;;;;;;1.90;1.80;;;2.10;99.90;;;;;;4938446;29;20287;-71
2021/12/08 06:14:32;;;;;;;1.50;1.50;;;2.10;99.90;;;;;;4937053;29;20763;-71
2021/12/08 06:17:04;;;;;;;1.65;1.65;;;2.20;99.90;;;;;;4937198;29;20530;-71
2021/12/08 06:19:31;;;;;;;1.33;1.33;;;2.10;99.90;;;;;;4937136;29;20589;-71
2021/12/08 06:21:59;;;;;;;1.40;1.40;;;2.10;99.90;;;;;;4937420;29;20289;-71
2021/12/08 06:24:26;;;;;;;1.52;1.52;;;2.20;99.90;;;;;;4937089;29;20240;-70
2021/12/08 06:26:54;;;;;;;1.40;1.40;;;2.10;99.90;;;;;;4936989;29;20291;-72
2021/12/08 06:29:21;;;;;;;1.40;1.40;;;2.10;99.90;;;;;;4937370;29;20235;-71
2021/12/08 06:31:52;;;;;;;1.50;1.50;;;2.10;99.90;;;;;;4936862;29;20747;-72
2021/12/08 06:34:20;;;;;;;1.48;1.48;;;2.10;99.90;;;;;;4937896;29;20235;-71
2021/12/08 06:36:51;;;;;;;1.30;1.30;;;2.10;99.90;;;;;;4937166;29;20211;-72
2021/12/08 06:39:24;;;;;;;1.83;1.77;;;2.10;99.90;;;;;;4937181;29;20239;-72
2021/12/08 06:41:54;;;;;;;1.40;1.40;;;2.10;99.90;;;;;;4937071;29;20193;-72
2021/12/08 06:44:25;;;;;;;1.98;1.88;;;2.10;99.90;;;;;;4937112;29;20276;-72
2021/12/08 06:46:52;;;;;;;1.98;1.98;;;2.00;99.90;;;;;;4936704;29;20735;-71
2021/12/08 06:49:22;;;;;;;2.00;2.00;;;2.00;99.90;;;;;;4936830;29;20227;-71
2021/12/08 06:51:53;;;;;;;2.00;1.90;;;2.00;99.90;;;;;;4936629;29;20295;-71
2021/12/08 06:54:25;;;;;;;2.03;1.92;;;2.00;99.90;;;;;;4936043;29;20275;-71
2021/12/08 06:56:56;;;;;;;2.45;2.35;;;2.00;99.90;;;;;;4936530;29;20235;-71
2021/12/08 06:59:26;;;;;;;2.00;1.98;;;2.00;99.90;;;;;;4937313;29;20220;-71
2021/12/08 07:02:03;;;;;;;1.60;1.60;;;1.90;99.90;;;;;;4936502;29;20248;-71
2021/12/08 07:04:52;;;;;;;1.73;1.73;;;1.90;99.90;;;;;;4936709;29;20288;-71
2021/12/08 07:07:20;;;;;;;1.58;1.58;;;1.90;99.90;;;;;;4936753;29;20196;-71
2021/12/08 07:09:51;;;;;;;1.70;1.60;;;1.90;99.90;;;;;;4936548;29;20232;-71
2021/12/08 07:12:24;;;;;;;1.80;1.80;;;1.90;99.90;;;;;;4936604;29;20193;-71
2021/12/08 07:14:55;;;;;;;2.10;2.00;;;1.90;99.90;;;;;;4938941;29;20288;-72
2021/12/08 07:17:25;;;;;;;1.50;1.50;;;1.80;99.90;;;;;;4940088;29;20645;-71
2021/12/08 07:20:13;;;;;;;1.60;1.60;;;1.90;99.90;;;;;;4940718;29;20349;-72
2021/12/08 07:22:43;;;;;;;1.50;1.50;;;1.90;99.90;;;;;;4940534;29;20591;-71
2021/12/08 07:25:13;;;;;;;1.40;1.40;;;1.90;99.90;;;;;;4940699;29;20747;-71
2021/12/08 07:27:41;;;;;;;1.45;1.45;;;1.90;99.90;;;;;;4940357;29;20205;-72
2021/12/08 07:30:12;;;;;;;1.42;1.42;;;2.00;99.90;;;;;;4940152;29;20232;-71
2021/12/08 07:32:41;;;;;;;1.55;1.52;;;1.90;99.90;;;;;;4940926;29;20638;-72
2021/12/08 07:35:12;;;;;;;1.15;1.15;;;2.00;99.90;;;;;;4940674;29;20236;-71
2021/12/08 07:37:39;;;;;;;1.15;1.15;;;2.00;99.90;;;;;;4942030;29;20201;-71
2021/12/08 07:40:12;;;;;;;1.48;1.48;;;2.00;99.90;;;;;;4941529;29;20255;-72
2021/12/08 07:42:44;;;;;;;1.20;1.20;;;2.00;99.90;;;;;;4940460;29;20248;-71
2021/12/08 07:45:15;;;;;;;1.65;1.55;;;2.00;99.90;;;;;;4940256;29;20193;-71
2021/12/08 07:47:43;;;;;;;1.60;1.60;;;2.00;99.90;;;;;;4940778;29;20186;-71
2021/12/08 07:50:15;;;;;;;2.10;2.00;;;2.00;99.90;;;;;;4941268;29;20228;-71
2021/12/08 07:52:47;;;;;;;2.45;2.33;;;2.00;99.90;;;;;;4940409;29;20655;-71
2021/12/08 07:55:20;;;;;;;1.80;1.80;;;2.00;99.90;;;;;;4941736;29;20575;-71
2021/12/08 07:57:50;;;;;;;2.50;2.40;;;2.00;99.90;;;;;;4941203;29;20215;-71
2021/12/08 08:00:22;;;;;;;2.30;2.20;;;2.00;99.90;;;;;;4941228;29;20270;-71
2021/12/08 08:02:51;;;;;;;2.00;2.00;;;2.10;99.90;;;;;;4938802;29;20555;-72
2021/12/08 08:05:22;;;;;;;2.30;2.20;;;2.00;99.90;;;;;;4938460;29;20239;-71
2021/12/08 08:07:49;;;;;;;2.05;1.95;;;2.10;99.90;;;;;;4939719;29;20633;-71
2021/12/08 08:10:18;;;;;;;2.10;2.00;;;2.10;99.90;;;;;;4939811;29;20319;-71
2021/12/08 08:12:49;;;;;;;2.17;2.08;;;2.10;99.90;;;;;;4939777;29;20232;-71
2021/12/08 08:15:21;;;;;;;1.92;1.92;;;2.10;99.90;;;;;;4939756;29;20268;-71
2021/12/08 08:17:51;;;;;;;2.08;2.00;;;2.10;99.90;;;;;;4939449;29;20638;-72
2021/12/08 08:20:24;;;;;;;2.00;1.90;;;2.10;99.90;;;;;;4939617;29;20220;-71
2021/12/08 08:22:51;;;;;;;2.05;2.00;;;2.20;99.90;;;;;;4939357;29;20641;-71
2021/12/08 08:25:22;;;;;;;1.52;1.52;;;2.20;99.90;;;;;;4939525;29;20295;-71
2021/12/08 08:27:51;;;;;;;2.05;1.95;;;2.20;99.90;;;;;;4939591;29;20280;-71
2021/12/08 08:30:22;;;;;;;2.05;1.95;;;2.20;99.90;;;;;;4939313;29;20319;-71
2021/12/08 08:32:52;;;;;;;2.88;2.67;;;2.20;99.90;;;;;;4939437;29;20708;-71
2021/12/08 08:35:26;;;;;;;7.22;4.05;;;2.30;99.90;;;;;;4939160;29;20237;-71
2021/12/08 08:37:54;;;;;;;7.22;5.00;;;2.20;99.90;;;;;;4939694;29;20200;-71
2021/12/08 08:40:25;;;;;;;9.40;5.00;;;2.20;99.90;;;;;;4939310;29;20315;-71
2021/12/08 08:42:54;;;;;;;4.65;4.13;;;2.20;99.90;;;;;;4939462;29;20193;-71
2021/12/08 08:45:37;;;;;;;3.80;3.15;;;2.20;99.90;;;;;;4939176;29;20204;-71
2021/12/08 08:48:09;;;;;;;3.30;3.08;;;2.20;99.90;;;;;;4939153;29;20224;-71
2021/12/08 08:50:42;;;;;;;4.07;3.00;;;2.20;99.90;;;;;;4939099;29;20319;-71
2021/12/08 08:53:10;;;;;;;2.70;2.53;;;2.20;99.90;;;;;;4939149;29;20277;-71
2021/12/08 08:55:40;;;;;;;3.05;2.80;;;2.30;99.90;;;;;;4938711;29;20735;-71
2021/12/08 08:58:11;;;;;;;3.20;2.90;;;2.20;99.90;;;;;;4938654;29;20295;-71
2021/12/08 09:00:42;;;;;;;2.53;2.33;;;2.30;99.90;;;;;;4939179;29;20224;-71
2021/12/08 09:03:16;;;;;;;2.60;2.40;;;2.30;99.90;;;;;;4938922;29;20224;-71
2021/12/08 09:05:51;;;;;;;2.10;2.00;;;2.30;99.90;;;;;;4938607;29;20708;-71
2021/12/08 09:08:21;;;;;;;3.22;3.03;;;2.30;99.90;;;;;;4938530;29;20563;-71
2021/12/08 09:10:53;;;;;;;2.72;2.55;;;2.30;99.90;;;;;;4938662;29;20287;-71
2021/12/08 09:13:26;;;;;;;2.58;2.47;;;2.30;99.90;;;;;;4938771;29;20276;-71
2021/12/08 09:15:57;;;;;;;2.50;2.40;;;2.30;99.90;;;;;;4937255;29;20189;-71
2021/12/08 09:18:30;;;;;;;2.17;2.15;;;2.30;99.90;;;;;;4938697;29;20288;-71
2021/12/08 09:21:09;;;;;;;2.00;1.90;;;2.30;99.90;;;;;;4938535;29;20221;-71
2021/12/08 09:23:43;;;;;;;2.00;1.90;;;2.30;99.90;;;;;;4938259;29;20548;-71
2021/12/08 09:26:13;;;;;;;2.60;2.50;;;2.30;99.90;;;;;;4938089;29;20559;-71
2021/12/08 09:28:44;;;;;;;2.53;2.42;;;2.30;99.90;;;;;;4938013;29;20636;-71
2021/12/08 09:31:16;;;;;;;2.50;2.40;;;2.30;99.90;;;;;;4938167;29;20323;-70
2021/12/08 09:33:50;;;;;;;2.20;2.10;;;2.30;99.90;;;;;;4938446;29;20208;-70
2021/12/08 09:36:27;;;;;;;2.42;2.33;;;2.30;99.90;;;;;;4938405;29;20280;-70
2021/12/08 09:38:56;;;;;;;2.03;1.92;;;2.30;99.90;;;;;;4938325;29;20192;-71
2021/12/08 09:41:28;;;;;;;2.00;2.00;;;2.30;99.90;;;;;;4938313;29;20203;-71
2021/12/08 09:44:05;;;;;;;1.98;1.98;;;2.30;99.90;;;;;;4938251;29;20197;-71
2021/12/08 09:46:35;;;;;;;1.92;1.85;;;2.30;99.90;;;;;;4937908;29;20616;-71
2021/12/08 09:49:04;;;;;;;2.13;2.03;;;2.40;99.90;;;;;;4938139;29;20209;-72
2021/12/08 09:51:33;;;;;;;1.90;1.90;;;2.40;99.90;;;;;;4937640;29;20700;-71
2021/12/08 09:54:00;;;;;;;1.80;1.80;;;2.40;99.90;;;;;;4937700;29;20296;-71
2021/12/08 09:56:27;;;;;;;1.55;1.55;;;2.40;99.90;;;;;;4938195;29;20646;-71
2021/12/08 09:58:55;;;;;;;2.20;2.10;;;2.40;99.90;;;;;;4937662;29;20752;-71
2021/12/08 10:01:25;;;;;;;2.13;2.05;;;2.40;99.90;;;;;;4937504;29;20316;-71
2021/12/08 10:03:54;;;;;;;3.33;3.13;;;2.40;99.90;;;;;;4937627;29;20764;-71
2021/12/08 10:06:23;;;;;;;7.03;5.50;;;2.30;99.90;;;;;;4937407;29;20247;-71
2021/12/08 10:08:57;;;;;;;6.28;5.57;;;2.20;99.90;;;;;;4937673;29;20295;-71
2021/12/08 10:11:25;;;;;;;5.60;5.00;;;2.10;99.90;;;;;;4937337;29;20669;-71
2021/12/08 10:13:53;;;;;;;5.05;4.55;;;2.20;99.90;;;;;;4937605;29;20259;-71
2021/12/08 10:16:20;;;;;;;6.07;4.70;;;2.10;99.90;;;;;;4937660;29;20232;-71
2021/12/08 10:18:50;;;;;;;5.88;4.38;;;2.20;99.90;;;;;;4937559;29;20287;-71
2021/12/08 10:21:19;;;;;;;5.10;4.25;;;2.20;99.90;;;;;;4937146;29;20696;-71
2021/12/08 10:23:48;;;;;;;4.95;4.20;;;2.20;99.90;;;;;;4937427;29;20201;-71
2021/12/08 10:26:17;;;;;;;4.55;4.20;;;2.20;99.90;;;;;;4937051;29;20665;-71
2021/12/08 10:28:46;;;;;;;4.75;4.35;;;2.30;99.90;;;;;;4937050;29;20290;-71
2021/12/08 10:31:15;;;;;;;3.92;3.63;;;2.30;99.90;;;;;;4936850;29;20320;-71
2021/12/08 10:34:00;;;;;;;3.90;3.58;;;2.30;99.90;;;;;;4937239;29;20205;-71
2021/12/08 10:39:21;;;;;;;3.40;3.20;;;2.40;99.90;;;;;;4936760;29;20200;-71
2021/12/08 10:41:55;;;;;;;3.72;3.35;;;2.50;99.90;;;;;;4936841;29;20280;-71
2021/12/08 10:44:25;;;;;;;3.90;3.60;;;2.50;99.90;;;;;;4936773;29;20728;-71
2021/12/08 10:46:56;;;;;;;3.10;2.90;;;2.60;99.90;;;;;;4936991;29;20295;-71
2021/12/08 10:54:24;;;;;;;2.92;2.72;;;2.60;99.90;;;;;;4936990;29;20280;-71
2021/12/08 10:54:59;;;;;;;2.45;2.35;;;2.60;99.90;;;;;;4936630;29;20685;-71
2021/12/08 10:57:31;;;;;;;2.30;2.20;;;2.70;99.90;;;;;;4936877;29;20284;-71
2021/12/08 11:00:05;;;;;;;2.72;2.53;;;2.80;99.90;;;;;;4936693;29;20653;-71
2021/12/08 11:02:54;;;;;;;2.63;2.53;;;2.80;99.90;;;;;;4936847;29;20216;-71
2021/12/08 11:05:45;;;;;;;2.15;2.05;;;2.90;99.90;;;;;;4932092;29;20295;-71
2021/12/08 11:08:16;;;;;;;2.17;2.08;;;2.90;99.90;;;;;;4936490;29;20193;-71
2021/12/08 11:10:48;;;;;;;3.15;3.03;;;2.90;99.90;;;;;;4936537;29;20312;-70
2021/12/08 11:13:17;;;;;;;2.33;2.17;;;2.90;99.90;;;;;;4936538;29;20189;-70
2021/12/08 11:15:44;;;;;;;2.58;2.47;;;2.90;99.90;;;;;;4936442;29;20215;-70
2021/12/08 11:18:15;;;;;;;2.72;2.63;;;3.00;99.90;;;;;;4936209;29;20744;-70
2021/12/08 11:20:55;;;;;;;2.30;2.20;;;3.00;99.90;;;;;;4936448;29;20730;-70
2021/12/08 11:23:41;;;;;;;2.28;2.17;;;2.90;99.90;;;;;;4936578;29;20189;-70
2021/12/08 11:26:26;;;;;;;2.08;2.08;;;2.90;99.90;;;;;;4936475;29;20192;-70
2021/12/08 11:28:59;;;;;;;2.75;2.65;;;2.90;99.90;;;;;;4936416;29;20235;-70
2021/12/08 11:31:30;;;;;;;2.95;2.75;;;3.00;99.90;;;;;;4935983;29;20601;-70
2021/12/08 11:34:00;;;;;;;2.95;2.75;;;2.90;99.90;;;;;;4936625;29;20203;-70
2021/12/08 11:36:30;;;;;;;2.75;2.65;;;2.90;99.90;;;;;;4936308;29;20256;-70
2021/12/08 11:38:58;;;;;;;2.33;2.22;;;2.90;99.90;;;;;;4936910;29;20189;-69
2021/12/08 11:41:34;;;;;;;3.45;3.25;;;2.90;99.90;;;;;;4940862;29;20283;-68
2021/12/08 11:44:03;;;;;;;3.05;2.85;;;2.90;99.90;;;;;;4940632;29;20195;-71
2021/12/08 11:46:37;;;;;;;3.08;2.88;;;2.90;99.90;;;;;;4940344;29;20299;-71
2021/12/08 11:49:07;;;;;;;4.32;3.92;;;2.90;99.90;;;;;;4940589;29;20220;-70
2021/12/08 11:51:59;;;;;;;4.50;3.95;;;2.90;99.90;;;;;;4940219;29;20233;-69
2021/12/08 11:54:33;;;;;;;5.22;4.30;;;2.80;99.90;;;;;;4940204;29;20279;-70
2021/12/08 11:57:17;;;;;;;4.28;3.88;;;2.80;99.90;;;;;;4940243;29;20286;-70
2021/12/08 12:00:04;;;;;;;4.05;3.65;;;2.80;99.90;;;;;;4940749;29;20231;-69
2021/12/08 12:02:34;;;;;;;3.50;3.25;;;2.90;99.90;;;;;;4940315;29;20189;-70
2021/12/08 12:05:04;;;;;;;3.50;3.20;;;2.90;99.90;;;;;;4940402;29;20248;-70
2021/12/08 12:07:33;;;;;;;4.00;3.60;;;2.90;99.90;;;;;;4939876;29;20297;-70
2021/12/08 12:10:00;;;;;;;5.30;3.78;;;2.80;99.90;;;;;;4939644;29;20252;-70
2021/12/08 12:12:27;;;;;;;5.07;3.80;;;2.90;99.90;;;;;;4939556;29;20738;-70
2021/12/08 12:14:54;;;;;;;3.88;3.50;;;2.80;99.90;;;;;;4939916;29;20204;-70
2021/12/08 12:17:21;;;;;;;3.92;3.20;;;2.90;99.90;;;;;;4939671;29;20205;-70
2021/12/08 12:19:55;;;;;;;3.78;3.47;;;2.80;99.90;;;;;;4940081;29;20311;-70
2021/12/08 12:22:36;;;;;;;3.45;3.15;;;2.80;99.90;;;;;;4940216;29;20295;-70
2021/12/08 12:25:18;;;;;;;3.67;3.38;;;2.80;99.90;;;;;;4939456;29;20290;-70
2021/12/08 12:27:55;;;;;;;3.58;3.38;;;2.80;99.90;;;;;;4939693;29;20189;-70
2021/12/08 12:30:33;;;;;;;3.58;3.28;;;2.70;99.90;;;;;;4959959;23;20319;-72
2021/12/08 12:33:00;;;;;;;3.90;3.60;;;2.70;99.90;;;;;;4958726;28;20204;-73
2021/12/08 12:35:31;;;;;;;3.10;2.85;;;2.70;99.90;;;;;;4958795;28;20735;-73
2021/12/08 12:38:05;;;;;;;3.58;3.30;;;2.70;99.90;;;;;;4958448;28;20594;-73
2021/12/08 12:40:36;;;;;;;3.65;3.30;;;2.60;99.90;;;;;;4958815;28;20310;-72
2021/12/08 12:43:04;;;;;;;3.38;3.08;;;2.60;99.90;;;;;;4958944;28;20187;-72
2021/12/08 12:45:37;;;;;;;4.30;3.88;;;2.60;99.90;;;;;;4958574;28;20200;-72
2021/12/08 12:48:13;;;;;;;5.78;4.95;;;2.60;99.90;;;;;;4958647;28;20267;-72
2021/12/08 12:50:55;;;;;;;5.78;4.78;;;2.60;99.90;;;;;;4958359;28;20238;-68
2021/12/08 12:53:50;;;;;;;5.68;5.05;;;2.60;99.90;;;;;;4958969;28;20307;-72
2021/12/08 12:56:20;;;;;;;8.00;5.72;;;2.60;99.90;;;;;;4949708;28;20203;-72
2021/12/08 12:58:50;;;;;;;5.88;5.22;;;2.60;99.90;;;;;;4959108;28;20251;-73
2021/12/08 13:01:20;;;;;;;6.47;5.63;;;2.60;99.90;;;;;;4959865;28;20259;-70
2021/12/08 13:04:05;;;;;;;6.25;5.25;;;2.60;99.90;;;;;;4959989;28;20204;-72
2021/12/08 13:06:47;;;;;;;5.95;5.43;;;2.60;99.90;;;;;;4959535;28;20244;-70
2021/12/08 13:09:43;;;;;;;5.95;4.78;;;2.60;99.90;;;;;;4959804;28;20552;-70
2021/12/08 13:12:12;;;;;;;6.28;5.07;;;2.60;99.90;;;;;;4958227;28;20239;-70
2021/12/08 13:14:40;;;;;;;4.90;4.47;;;2.60;99.90;;;;;;4957932;28;20214;-70
2021/12/08 13:17:24;;;;;;;6.32;5.53;;;2.60;99.90;;;;;;4958974;28;20208;-71
2021/12/08 13:19:54;;;;;;;5.45;4.75;;;2.60;99.90;;;;;;4958673;28;20259;-70
2021/12/08 13:22:55;;;;;;;5.50;4.60;;;2.60;99.90;;;;;;4957838;28;20196;-70
2021/12/08 13:25:40;;;;;;;6.28;4.85;;;2.70;99.90;;;;;;4958075;28;20208;-70
2021/12/08 13:28:18;;;;;;;5.30;4.75;;;2.70;99.90;;;;;;4957638;28;20264;-70
2021/12/08 13:30:52;;;;;;;5.38;4.40;;;2.70;99.90;;;;;;4957511;28;20234;-70
2021/12/08 13:33:39;;;;;;;5.05;4.30;;;2.70;99.90;;;;;;4957500;28;20720;-73
2021/12/08 13:36:32;;;;;;;4.88;3.97;;;2.70;99.90;;;;;;4957684;28;20192;-72
2021/12/08 13:39:14;;;;;;;3.95;3.55;;;2.70;99.90;;;;;;4957712;28;20196;-73
2021/12/08 13:41:55;;;;;;;3.40;3.10;;;2.70;99.90;;;;;;4957623;28;20307;-74
2021/12/08 13:44:25;;;;;;;3.53;3.22;;;2.70;99.90;;;;;;4957595;28;20199;-73
2021/12/08 13:46:54;;;;;;;3.40;3.20;;;2.70;99.90;;;;;;4957302;28;20295;-73
2021/12/08 13:49:24;;;;;;;2.88;2.75;;;2.70;99.90;;;;;;4957453;28;20210;-72
2021/12/08 13:52:15;;;;;;;2.60;2.50;;;2.70;99.90;;;;;;4957198;28;20254;-73
2021/12/08 13:54:44;;;;;;;2.80;2.60;;;2.70;99.90;;;;;;4957198;28;20193;-72
2021/12/08 13:57:28;;;;;;;2.53;2.42;;;2.70;99.90;;;;;;4957017;28;20766;-73
2021/12/08 13:59:57;;;;;;;2.47;2.38;;;2.70;99.90;;;;;;4957652;28;20331;-72
2021/12/08 14:02:27;;;;;;;2.65;2.45;;;2.70;99.90;;;;;;4957136;28;20202;-73
2021/12/08 14:05:05;;;;;;;2.45;2.35;;;2.60;99.90;;;;;;4957459;28;20272;-73
2021/12/08 14:07:32;;;;;;;2.45;2.35;;;2.60;99.90;;;;;;4957284;28;20274;-72
2021/12/08 14:10:01;;;;;;;2.60;2.50;;;2.60;99.90;;;;;;4956813;28;20339;-72
2021/12/08 14:12:46;;;;;;;2.78;2.58;;;2.60;99.90;;;;;;4957239;28;20271;-73
2021/12/08 14:15:19;;;;;;;2.70;2.50;;;2.50;99.90;;;;;;4956335;28;20295;-72
2021/12/08 14:17:48;;;;;;;2.65;2.45;;;2.50;99.90;;;;;;4956804;28;20295;-73
2021/12/08 14:20:34;;;;;;;2.55;2.42;;;2.50;99.90;;;;;;4956884;28;20235;-72
2021/12/08 14:23:03;;;;;;;2.17;2.08;;;2.40;99.90;;;;;;4957597;28;20283;-73
2021/12/08 14:25:36;;;;;;;2.40;2.30;;;2.40;99.90;;;;;;4956789;28;20200;-73
2021/12/08 14:28:41;;;;;;;2.90;2.53;;;2.40;99.90;;;;;;4956417;28;20275;-74
2021/12/08 14:31:29;;;;;;;2.47;2.38;;;2.40;99.90;;;;;;4941560;28;20267;-73
2021/12/08 14:34:03;;;;;;;3.38;2.70;;;2.40;99.90;;;;;;4956322;28;20294;-73
2021/12/08 14:36:35;;;;;;;2.50;2.30;;;2.40;99.90;;;;;;4956526;28;20279;-73
2021/12/08 14:39:04;;;;;;;2.70;2.50;;;2.40;99.90;;;;;;4956512;28;20188;-73
2021/12/08 14:41:33;;;;;;;2.78;2.58;;;2.40;99.90;;;;;;4956380;28;20311;-73
2021/12/08 14:44:07;;;;;;;2.20;2.10;;;2.40;99.90;;;;;;4956635;28;20298;-73
2021/12/08 14:46:36;;;;;;;1.90;1.90;;;2.30;99.90;;;;;;4956338;28;20690;-72
2021/12/08 14:49:05;;;;;;;2.35;2.17;;;2.30;99.90;;;;;;4956005;28;20295;-73
2021/12/08 14:51:35;;;;;;;2.63;2.42;;;2.30;99.90;;;;;;4955871;28;20707;-72
2021/12/08 14:54:23;;;;;;;2.50;2.30;;;2.30;99.90;;;;;;4956317;28;20223;-74
2021/12/08 14:57:12;;;;;;;2.70;2.47;;;2.30;99.90;;;;;;4956246;28;20631;-74
2021/12/08 14:59:42;;;;;;;2.38;2.28;;;2.30;99.90;;;;;;4956023;28;20203;-70
2021/12/08 15:02:11;;;;;;;2.65;2.45;;;2.30;99.90;;;;;;4955986;28;20295;-72
2021/12/08 15:04:39;;;;;;;2.72;2.58;;;2.30;99.90;;;;;;4956185;28;20298;-72
2021/12/08 15:07:08;;;;;;;2.92;2.72;;;2.30;99.90;;;;;;4955974;28;20294;-72
2021/12/08 15:09:36;;;;;;;3.33;3.03;;;2.30;99.90;;;;;;4955917;28;20290;-71
2021/12/08 15:12:06;;;;;;;2.88;2.67;;;2.30;99.90;;;;;;4955367;28;20235;-71
2021/12/08 15:14:39;;;;;;;2.83;2.72;;;2.20;99.90;;;;;;4955557;28;20211;-71
2021/12/08 15:17:06;;;;;;;3.17;2.97;;;2.20;99.90;;;;;;4955867;28;20275;-72
2021/12/08 15:19:34;;;;;;;2.88;2.67;;;2.20;99.90;;;;;;4955820;28;20294;-71
2021/12/08 15:22:07;;;;;;;3.65;3.03;;;2.20;99.90;;;;;;4955604;28;20207;-72
2021/12/08 15:24:34;;;;;;;3.92;3.67;;;2.20;99.90;;;;;;4955806;28;20618;-71
2021/12/08 15:27:12;;;;;;;3.75;3.42;;;2.20;99.90;;;;;;4955458;28;20759;-71
2021/12/08 15:29:41;;;;;;;6.10;3.55;;;2.20;99.90;;;;;;4955596;28;20643;-72
2021/12/08 15:32:13;;;;;;;3.78;3.30;;;2.20;99.90;;;;;;4955401;28;20295;-72
2021/12/08 15:34:42;;;;;;;3.83;3.53;;;2.20;99.90;;;;;;4956436;28;20192;-72
2021/12/08 15:37:13;;;;;;;3.78;3.45;;;2.20;99.90;;;;;;4955310;28;20715;-72
2021/12/08 15:39:42;;;;;;;5.40;4.53;;;2.20;99.90;;;;;;4955564;28;20196;-72
2021/12/08 15:42:12;;;;;;;5.22;3.67;;;2.10;99.90;;;;;;4955521;28;20295;-72
2021/12/08 15:44:41;;;;;;;3.53;3.33;;;2.10;99.90;;;;;;4955686;28;20275;-72
2021/12/08 15:47:10;;;;;;;3.95;3.47;;;2.10;99.90;;;;;;4955343;28;20747;-73
2021/12/08 15:49:39;;;;;;;3.63;3.33;;;2.10;99.90;;;;;;4955227;28;20215;-73
2021/12/08 15:52:10;;;;;;;3.70;3.13;;;2.10;99.90;;;;;;4955778;28;20199;-73
2021/12/08 15:54:39;;;;;;;3.50;3.20;;;2.10;99.90;;;;;;4955870;28;20664;-72
2021/12/08 15:57:09;;;;;;;3.92;3.10;;;2.10;99.90;;;;;;4955879;28;20208;-72
2021/12/08 15:59:41;;;;;;;4.10;3.15;;;2.10;99.90;;;;;;4955403;28;20259;-72
2021/12/08 16:02:16;;;;;;;4.95;3.40;;;2.10;99.90;;;;;;4955499;28;20279;-68
2021/12/08 16:04:50;;;;;;;4.55;3.45;;;2.10;99.90;;;;;;4955788;28;20191;-71
2021/12/08 16:07:24;;;;;;;4.05;3.67;;;2.10;99.90;;;;;;4955710;28;20184;-72
2021/12/08 16:09:51;;;;;;;3.53;3.22;;;2.10;99.90;;;;;;4955689;28;20318;-72
2021/12/08 16:12:18;;;;;;;3.95;3.50;;;2.10;99.90;;;;;;4955430;28;20200;-70
2021/12/08 16:14:53;;;;;;;4.63;3.53;;;2.10;99.90;;;;;;4955299;28;20286;-68
2021/12/08 16:17:23;;;;;;;3.55;3.25;;;2.10;99.90;;;;;;4955304;28;20188;-70
2021/12/08 16:19:53;;;;;;;3.10;2.90;;;2.10;99.90;;;;;;4955402;28;20267;-70
2021/12/08 16:22:23;;;;;;;3.65;2.50;;;2.10;99.90;;;;;;4955356;28;20637;-69
2021/12/08 16:24:51;;;;;;;2.38;2.28;;;2.10;99.90;;;;;;4955715;28;20200;-69
2021/12/08 16:27:20;;;;;;;2.70;2.50;;;2.10;99.90;;;;;;4959243;28;20239;-70
2021/12/08 16:29:48;;;;;;;2.33;2.22;;;2.10;99.90;;;;;;4959305;28;20200;-70
2021/12/08 16:32:16;;;;;;;2.05;1.95;;;2.00;99.90;;;;;;4959841;28;20200;-70
2021/12/08 16:34:44;;;;;;;2.55;2.40;;;2.00;99.90;;;;;;4958973;28;20758;-70
2021/12/08 16:37:12;;;;;;;2.97;2.78;;;2.00;99.90;;;;;;4959128;28;20294;-70
2021/12/08 16:39:56;;;;;;;2.00;1.90;;;2.00;99.90;;;;;;4959154;28;20276;-70
2021/12/08 16:45:11;;;;;;;2.60;2.40;;;2.00;99.90;;;;;;4959119;29;20183;-70
2021/12/08 16:47:38;;;;;;;2.33;2.13;;;2.00;99.90;;;;;;4958746;28;20755;-70
2021/12/08 16:50:08;;;;;;;2.20;2.20;;;2.00;99.90;;;;;;4958790;28;20303;-70
2021/12/08 16:52:35;;;;;;;1.92;1.83;;;2.00;99.90;;;;;;4959044;28;20235;-70
2021/12/08 16:55:04;;;;;;;2.35;2.25;;;2.00;99.90;;;;;;4959011;28;20291;-70
2021/12/08 16:57:32;;;;;;;2.00;1.90;;;2.00;99.90;;;;;;4959098;28;20299;-70
2021/12/08 16:59:59;;;;;;;1.75;1.65;;;2.00;99.90;;;;;;4959179;28;20330;-70
2021/12/08 17:02:26;;;;;;;1.83;1.73;;;2.00;99.90;;;;;;4958982;28;20212;-70
2021/12/08 17:04:53;;;;;;;1.88;1.77;;;2.00;99.90;;;;;;4959063;28;20283;-70
2021/12/08 17:07:20;;;;;;;1.80;1.70;;;2.00;99.90;;;;;;4958810;28;20228;-70
2021/12/08 17:09:47;;;;;;;1.70;1.63;;;2.00;99.90;;;;;;4958576;28;20287;-71
2021/12/08 17:12:15;;;;;;;1.35;1.30;;;2.00;99.90;;;;;;4958947;28;20620;-71
2021/12/08 17:14:42;;;;;;;1.80;1.80;;;2.00;99.90;;;;;;4958250;28;20226;-70
2021/12/08 17:17:09;;;;;;;1.77;1.67;;;2.00;99.90;;;;;;4958477;28;20240;-70
2021/12/08 17:19:38;;;;;;;1.85;1.75;;;2.00;99.90;;;;;;4958272;28;20712;-71
2021/12/08 17:22:05;;;;;;;2.28;2.17;;;2.00;99.90;;;;;;4957980;28;20251;-71
2021/12/08 17:24:35;;;;;;;1.30;1.30;;;2.00;99.90;;;;;;4958600;28;20215;-71
2021/12/08 17:27:02;;;;;;;1.45;1.45;;;2.00;99.90;;;;;;4958719;28;20608;-71
2021/12/08 17:29:31;;;;;;;2.05;2.00;;;2.00;99.90;;;;;;4958225;28;20294;-72
2021/12/08 17:31:58;;;;;;;1.63;1.63;;;2.00;99.90;;;;;;4957841;28;20635;-72
2021/12/08 17:34:25;;;;;;;1.48;1.48;;;2.00;99.90;;;;;;4958094;28;20314;-71
2021/12/08 17:36:53;;;;;;;1.60;1.60;;;2.00;99.90;;;;;;4957028;28;20738;-72
2021/12/08 17:39:21;;;;;;;1.83;1.83;;;2.00;99.90;;;;;;4957415;28;20755;-71
2021/12/08 17:41:49;;;;;;;1.92;1.83;;;2.00;99.90;;;;;;4957584;28;20275;-72
2021/12/08 17:44:17;;;;;;;2.20;2.10;;;2.00;99.90;;;;;;4957199;28;20620;-71
2021/12/08 17:46:46;;;;;;;2.17;2.08;;;2.00;99.90;;;;;;4957909;28;20204;-71
2021/12/08 17:49:13;;;;;;;2.15;2.05;;;2.00;99.90;;;;;;4957713;28;20260;-71
2021/12/08 17:51:41;;;;;;;1.80;1.80;;;2.00;99.90;;;;;;4957780;28;20310;-72
2021/12/08 17:54:10;;;;;;;1.90;1.90;;;2.00;99.90;;;;;;4957894;28;20307;-71
2021/12/08 17:56:39;;;;;;;1.67;1.67;;;2.00;99.90;;;;;;4957847;28;20204;-71
2021/12/08 17:59:07;;;;;;;1.60;1.60;;;2.00;99.90;;;;;;4958023;28;20294;-71
2021/12/08 18:01:36;;;;;;;1.52;1.52;;;2.00;99.90;;;;;;4957085;28;20566;-72
2021/12/08 18:04:08;;;;;;;1.50;1.50;;;2.00;99.90;;;;;;4957638;28;20287;-71
2021/12/08 18:06:37;;;;;;;2.15;2.05;;;2.00;99.90;;;;;;4957402;28;20227;-71
2021/12/08 18:09:06;;;;;;;1.80;1.80;;;2.00;99.90;;;;;;4957406;28;20291;-71
2021/12/08 18:11:33;;;;;;;2.13;2.05;;;2.00;99.90;;;;;;4957194;28;20278;-71
2021/12/08 18:14:00;;;;;;;1.67;1.67;;;2.00;99.90;;;;;;4957061;28;20224;-71
2021/12/08 18:16:27;;;;;;;2.10;2.00;;;2.00;99.90;;;;;;4956909;28;20294;-71
2021/12/08 18:18:55;;;;;;;2.60;2.40;;;2.00;99.90;;;;;;4956987;28;20295;-71
2021/12/08 18:21:24;;;;;;;2.42;2.30;;;1.90;99.90;;;;;;4957248;28;20314;-71
2021/12/08 18:23:52;;;;;;;2.20;2.10;;;2.00;99.90;;;;;;4957177;28;20227;-71
2021/12/08 18:26:19;;;;;;;2.70;2.60;;;2.00;99.90;;;;;;4957051;28;20668;-71
2021/12/08 18:28:47;;;;;;;2.63;2.10;;;2.00;99.90;;;;;;4959135;28;20291;-70
2021/12/08 18:31:16;;;;;;;2.25;2.05;;;2.00;99.90;;;;;;4961079;28;20227;-71
2021/12/08 18:33:43;;;;;;;2.53;2.40;;;2.00;99.90;;;;;;4961007;28;20311;-69
2021/12/08 18:36:17;;;;;;;3.63;3.05;;;2.00;99.90;;;;;;4961790;28;20216;-69
2021/12/08 18:38:46;;;;;;;2.75;2.47;;;2.00;99.90;;;;;;4962237;28;20282;-71
2021/12/08 18:41:16;;;;;;;3.58;3.28;;;2.00;99.90;;;;;;4962378;28;20228;-71
2021/12/08 18:43:45;;;;;;;2.92;2.63;;;1.90;99.90;;;;;;4962718;28;20196;-71
2021/12/08 18:46:14;;;;;;;2.30;2.20;;;1.90;99.90;;;;;;4961323;28;20212;-71
2021/12/08 18:48:42;;;;;;;3.35;3.05;;;1.90;99.90;;;;;;4959046;28;20611;-69
2021/12/08 18:51:12;;;;;;;2.80;2.58;;;2.00;99.90;;;;;;4956171;28;20786;-70
2021/12/08 18:53:42;;;;;;;2.78;2.58;;;1.90;99.90;;;;;;4956692;28;20576;-70
2021/12/08 18:56:11;;;;;;;2.70;2.50;;;2.00;99.90;;;;;;4956281;28;20204;-70
2021/12/08 18:58:39;;;;;;;2.20;2.10;;;2.00;99.90;;;;;;4956395;28;20294;-70